メインページ
METAR-TAF:

METAR-TAF

空港 :

グアテマラシティ, グアテマラ

ラ・アウロラ国際空港

緯度: 14-35N, 経度: 090-31W, 海抜: 1489m

現時点の気象観測

当レポートは42分前の00:00(UTC)に作成
の風 20kt
気温 12°C
湿度 71%
気圧 1028 hPa
視程10km以上
高度1700ftの雲はほとんどない
高度20000ftの千切れ雲あり

METAR: MGGT 120000Z 36020KT 9999 FEW017 BKN200 12/07 Q1028 A3036 VOL, DE FUEGO EN ACTIVIDAD

時間: 18:42 (00:42 UTC)

予報

予報は12日の 00時(UTC)から 12日の 24時(UTC)まで有効
の風 18kt
視程10km以上
高度1600ftの雲はほとんどない
高度20000ftの千切れ雲あり
12日の 14時(UTC)から 12日の 16時(UTC)まで徐々に
視程10km以上
1,500メートル以下は雲なし、積乱雲なし
12日の 16時(UTC)から 12日の 18時(UTC)まで徐々に
北東の風 16kt
高度1800ftの雲はほとんどない

TAF: MGGT 1200/1224 36018KT 9999 FEW016 BKN200 TX19/1220Z TN08/1212Z BECMG 1214/1216 CAVOK BECMG 1216/1218 05016KT FEW018

4,000以上の空港の気象観測と天気予報(METAR報とTAF報)

利用可能な観測所は地図上に黄色い丸と赤い丸で示す。

丸の上にカーソルを重ねると観測所名を参照できる。

次にクリックすると気象観測と天気予報を参照できる。

マップの切り替え:黒色「×」印の緑ボタンをクリックして拡大、「-」印の緑ボタンをクリックして縮小、緑色の三角印をクリックして隣りの地図に切り替え


METAR-TAF: